METAR Data
IDs: Format: Raw Decoded Include TAF

Data at: 0821 UTC 20 Sep 2018

PANN 200753Z AUTO 00000KT 10SM -RA FEW029 OVC038 08/07 A3016 RMK AO2 SLP219 P0001 T00780072 TSNO
PANN 200653Z AUTO 00000KT 10SM -RA SCT029 SCT035 OVC041 08/07 A3016 RMK AO2 RAB41 SLP220 P0000 T00780067 TSNO
PANN 200553Z AUTO 08003KT 10SM OVC050 07/07 A3016 RMK AO2 SLP221 60008 T00720067 10111 20072 56002 TSNO
PANN 200453Z AUTO 08003KT 10SM FEW049 OVC060 08/07 A3016 RMK AO2 RAB07E50 SLP221 P0001 T00780067 TSNO
PANN 200353Z AUTO 00000KT 10SM SCT070 OVC085 08/08 A3016 RMK AO2 RAE25 SLP222 P0000 T00830078 TSNO
PANN 200253Z AUTO 00000KT 10SM -RA OVC055 09/07 A3017 RMK AO2 SLP224 P0001 60007 T00940067 54000 TSNO
PANN 200153Z AUTO 00000KT 10SM -RA FEW049 OVC065 10/09 A3017 RMK AO2 SLP223 P0001 T01000089 TSNO
PANN 200053Z AUTO 00000KT 6SM -RA BR FEW022 SCT029 OVC037 10/08 A3017 RMK AO2 SLP223 P0005 T01000078 TSNO
PANN 192353Z AUTO 17004KT 10SM -RA BKN065 OVC075 11/08 A3017 RMK AO2 RAB40 SLP222 P0000 60000 T01110078 10117 20083 56006 TSNO
PANN 192253Z AUTO 00000KT 10SM OVC065 12/07 A3017 RMK AO2 SLP224 T01170072 TSNO
PANN 192153Z AUTO 28003KT 10SM BKN075 OVC100 11/07 A3018 RMK AO2 SLP227 T01110072 TSNO
PANN 192053Z AUTO 00000KT 10SM FEW018 BKN070 OVC100 11/07 A3019 RMK AO2 SLP229 T01060072 58002 TSNO
PANN 191953Z AUTO 00000KT 10SM OVC017 11/08 A3019 RMK AO2 SLP230 T01060078 TSNO
PANN 191939Z AUTO 00000KT 10SM OVC016 11/08 A3019 RMK AO2 T01060083 TSNO
PANN 191917Z AUTO 00000KT 10SM BKN013 BKN035 OVC110 11/09 A3019 RMK AO2 T01060089 TSNO
PANN 191853Z AUTO 00000KT 10SM SCT034 OVC050 09/08 A3019 RMK AO2 SLP231 T00940083 TSNO
PANN 191820Z AUTO 00000KT 10SM FEW023 OVC034 09/08 A3019 RMK AO2 T00890078 TSNO
PANN 191753Z AUTO 00000KT 10SM OVC017 08/07 A3019 RMK AO2 SLP230 60000 T00830072 10083 20050 53002 TSNO
PANN 191653Z AUTO 00000KT 10SM SCT015 BKN021 OVC050 07/07 A3019 RMK AO2 RAE02 SLP229 P0000 T00720067 TSNO
PANN 191553Z AUTO 00000KT 10SM -RA OVC043 06/05 A3019 RMK AO2 RAB53 SLP229 P0000 T00560050 TSNO
PANN 191453Z AUTO 00000KT 10SM BKN042 OVC100 05/05 A3019 RMK AO2 SLP230 T00500050 55001 TSNO $
PANN 191353Z AUTO 00000KT 10SM FEW045 06/05 A3018 RMK AO2 SLP228 T00560050 TSNO $
PANN 191345Z AUTO 00000KT 2SM BR FEW045 06/05 A3018 RMK AO2 T00560050 TSNO $
PANN 191337Z AUTO 00000KT 1/2SM FG FEW045 06/05 A3018 RMK AO2 T00560050 TSNO $
PANN 191328Z AUTO 00000KT 1 3/4SM BR FEW045 06/06 A3018 RMK AO2 VIS 1/2V5 T00610056 TSNO $
PANN 191253Z AUTO 00000KT 9SM SCT027 BKN040 BKN095 07/06 A3019 RMK AO2 SLP229 T00670061 TSNO $
PANN 191245Z AUTO 00000KT 10SM BKN028 OVC040 07/06 A3019 RMK AO2 T00670061 TSNO $
PANN 191153Z AUTO 00000KT 9SM OVC038 07/06 A3019 RMK AO2 SLP230 T00670061 10094 20050 57001 TSNO $
PANN 191053Z AUTO 00000KT 7SM BKN039 OVC060 06/06 A3019 RMK AO2 SLP231 T00610056 TSNO $
PANN 191046Z AUTO 00000KT 5SM BR BKN039 BKN060 06/06 A3019 RMK AO2 T00560056 TSNO $
PANN 191038Z AUTO 00000KT 2SM BR SCT039 BKN060 06/06 A3019 RMK AO2 VIS 1 1/4V5 T00610056 TSNO $
PANN 191026Z AUTO 00000KT 1/2SM FG FEW039 SCT060 05/05 A3019 RMK AO2 T00500050 TSNO
PANN 191006Z AUTO 09003KT 1 1/4SM BR SCT001 06/05 A3019 RMK AO2 T00560050 TSNO
PANN 190953Z AUTO 00000KT 1/4SM FG VV001 06/05 A3019 RMK AO2 SLP231 T00560050 TSNO
PANN 190853Z AUTO 07003KT 1/2SM FG VV001 07/06 A3019 RMK AO2 SLP231 T00670061 401170033 56003 TSNO
PANN 190851Z AUTO 07003KT 1/2SM FG VV001 07/06 A3019 RMK AO2 TSNO
PANN 190803Z AUTO 00000KT 3/4SM BR FEW002 BKN050 07/07 A3020 RMK AO2 T00720067 TSNO
PANN 190800Z AUTO 00000KT 1 1/2SM BR BKN050 07/07 A3020 RMK AO2 VIS 1/2V5 T00720067 TSNO
PANN 190753Z AUTO 00000KT 8SM BKN050 08/07 A3020 RMK AO2 SLP233 T00780072 TSNO
PANN 190747Z AUTO 00000KT 4SM BR BKN050 08/07 A3020 RMK AO2 TSNO
PANN 190739Z AUTO 00000KT 1 3/4SM BR BKN050 BKN070 08/07 A3020 RMK AO2 T00780072 TSNO
PANN 190653Z AUTO 00000KT 9SM OVC055 09/08 A3020 RMK AO2 SLP234 T00890083 TSNO
PANN 190553Z AUTO 09003KT 8SM OVC055 09/08 A3020 RMK AO2 RAB0454E44 SLP235 P0000 60000 T00890083 10117 20089 51001 TSNO
PANN 190453Z AUTO 00000KT 10SM OVC050 10/09 A3020 RMK AO2 RAB19E29 SLP235 P0000 T01000089 TSNO
PANN 190353Z AUTO 00000KT 10SM OVC040 11/09 A3020 RMK AO2 SLP234 T01060089 TSNO
PANN 190325Z AUTO 00000KT 10SM SCT023 OVC041 11/09 A3020 RMK AO2 T01060089 TSNO
PANN 190253Z AUTO 00000KT 10SM OVC019 11/09 A3020 RMK AO2 SLP234 T01060089 58003 TSNO
PANN 190203Z AUTO 00000KT 10SM SCT009 BKN016 OVC026 11/09 A3020 RMK AO2 T01060089 TSNO
PANN 190153Z AUTO 00000KT 10SM BKN010 BKN016 OVC027 11/09 A3020 RMK AO2 SLP236 T01060089 TSNO
PANN 190053Z AUTO VRB03KT 10SM OVC012 11/09 A3020 RMK AO2 SLP235 T01110089 TSNO
PANN 190002Z AUTO 25003KT 10SM OVC011 11/09 A3021 RMK AO2 T01110094 TSNO
PANN 182353Z AUTO 25004KT 10SM OVC009 11/10 A3021 RMK AO2 RAE05 SLP237 P0000 60000 T01110100 10117 20067 55000 TSNO
PANN 182307Z AUTO 24003KT 3SM BR OVC007 11/10 A3021 RMK AO2 RAE05 CIG 004V011 P0000 T01110100 TSNO
PANN 182253Z AUTO 00000KT 1 1/2SM -RA BR OVC006 11/10 A3021 RMK AO2 RAB48 SLP236 P0000 T01110100 TSNO
PANN 182245Z AUTO 00000KT 2SM BR OVC006 11/10 A3021 RMK AO2 T01110100 TSNO
PANN 182231Z AUTO 00000KT 9SM OVC004 11/10 A3021 RMK AO2 T01060100 TSNO
PANN 182214Z AUTO 00000KT 3SM BR OVC005 11/09 A3021 RMK AO2 T01060094 TSNO
PANN 182203Z AUTO 00000KT 2 1/2SM BR OVC005 10/09 A3021 RMK AO2 T01000094 TSNO
PANN 182153Z AUTO 00000KT 4SM BR OVC005 10/09 A3021 RMK AO2 RAB10E30 SLP237 P0000 T01000094 TSNO
PANN 182150Z AUTO 00000KT 5SM BR OVC005 10/09 A3021 RMK AO2 RAB10E30 P0000 TSNO
PANN 182118Z AUTO 00000KT 3SM -RA BR OVC004 10/09 A3021 RMK AO2 RAB10 P0000 T01000089 TSNO
PANN 182053Z AUTO 09003KT 2SM BR OVC007 10/09 A3020 RMK AO2 CIG 004V010 SLP234 T01000089 51003 TSNO
PANN 182049Z AUTO 08003KT 2 1/2SM BR SCT005 OVC009 10/09 A3020 RMK AO2 TSNO